createdAt,value
2017-02-20T00:00:15.661Z,25.56
2017-02-20T00:00:35.516Z,25.59
2017-02-20T00:00:55.309Z,25.53
2017-02-20T00:01:15.143Z,25.52
2017-02-20T00:01:34.882Z,25.57
2017-02-20T00:01:54.570Z,25.52
2017-02-20T00:02:13.732Z,25.53
2017-02-20T00:02:32.860Z,25.53
2017-02-20T00:02:52.632Z,25.55
2017-02-20T00:03:12.386Z,25.57
2017-02-20T00:03:31.586Z,25.59
2017-02-20T00:03:51.364Z,25.53
2017-02-20T00:04:10.515Z,25.56
2017-02-20T00:04:29.682Z,25.6
2017-02-20T00:04:49.449Z,25.55
2017-02-20T00:05:09.169Z,25.64
2017-02-20T00:05:28.977Z,25.6
2017-02-20T00:05:48.739Z,25.55
2017-02-20T00:06:07.918Z,25.57
2017-02-20T00:06:27.076Z,25.56
2017-02-20T00:06:46.833Z,25.62
2017-02-20T00:07:06.621Z,25.53
2017-02-20T00:07:25.788Z,25.56
2017-02-20T00:07:45.556Z,25.59
2017-02-20T00:08:05.318Z,25.57
2017-02-20T00:08:24.483Z,25.62
2017-02-20T00:08:44.288Z,25.57
2017-02-20T00:09:04.028Z,25.65
2017-02-20T00:09:23.762Z,25.53
2017-02-20T00:09:43.513Z,25.64
2017-02-20T00:10:03.301Z,25.65
2017-02-20T00:10:22.470Z,25.57
2017-02-20T00:10:42.219Z,25.68
2017-02-20T00:11:02.001Z,25.72
2017-02-20T00:11:21.729Z,25.7
2017-02-20T00:11:41.427Z,25.57
2017-02-20T00:12:01.161Z,25.62
2017-02-20T00:12:20.928Z,25.55
2017-02-20T00:12:40.716Z,25.57
2017-02-20T00:13:00.445Z,25.59
2017-02-20T00:13:20.208Z,25.57
2017-02-20T00:13:39.973Z,25.59
2017-02-20T00:13:59.775Z,25.56
2017-02-20T00:14:19.496Z,25.5
2017-02-20T00:14:39.272Z,25.46
2017-02-20T00:14:59.072Z,25.55
2017-02-20T00:15:18.853Z,25.49
2017-02-20T00:15:38.596Z,25.41
2017-02-20T00:15:58.416Z,25.45
2017-02-20T00:16:18.163Z,25.45
2017-02-20T00:16:38.024Z,25.49
2017-02-20T00:16:57.836Z,25.47
2017-02-20T00:17:17.589Z,25.45
2017-02-20T00:17:37.382Z,25.46
2017-02-20T00:17:56.508Z,25.4
2017-02-20T00:18:15.649Z,25.38
2017-02-20T00:18:35.513Z,25.41
2017-02-20T00:18:55.313Z,25.37
2017-02-20T00:19:15.093Z,25.35
2017-02-20T00:19:34.889Z,25.35
2017-02-20T00:19:54.653Z,25.32
2017-02-20T00:20:13.184Z,25.38
2017-02-20T00:20:32.868Z,25.38
2017-02-20T00:20:52.622Z,25.38
2017-02-20T00:21:12.336Z,25.45
2017-02-20T00:21:32.083Z,25.46
2017-02-20T00:21:51.848Z,25.52
2017-02-20T00:22:25.448Z,25.57
2017-02-20T00:22:45.196Z,25.53
2017-02-20T00:23:04.981Z,25.55
2017-02-20T00:23:24.759Z,25.62
2017-02-20T00:23:44.511Z,25.62
2017-02-20T00:24:04.293Z,25.6
2017-02-20T00:24:24.047Z,25.64
2017-02-20T00:24:43.793Z,25.57
2017-02-20T00:25:03.535Z,25.72
2017-02-20T00:25:22.717Z,25.75
2017-02-20T00:25:42.509Z,25.67
2017-02-20T00:26:02.260Z,25.71
2017-02-20T00:26:21.417Z,25.75
2017-02-20T00:26:41.183Z,25.7
2017-02-20T00:27:00.922Z,25.75
2017-02-20T00:27:20.635Z,25.71
2017-02-20T00:27:39.797Z,25.68
2017-02-20T00:27:59.532Z,25.77
2017-02-20T00:28:19.283Z,25.7
2017-02-20T00:28:39.004Z,25.68
2017-02-20T00:28:58.730Z,25.71
2017-02-20T00:29:18.483Z,25.64
2017-02-20T00:29:38.258Z,25.64
2017-02-20T00:29:58.022Z,25.68
2017-02-20T00:30:17.831Z,25.71
2017-02-20T00:30:37.001Z,25.56
2017-02-20T00:30:56.759Z,25.53
2017-02-20T00:31:16.478Z,25.65
2017-02-20T00:31:36.213Z,25.67
2017-02-20T00:31:56.007Z,25.56
2017-02-20T00:32:15.735Z,25.52
2017-02-20T00:32:35.514Z,25.53
2017-02-20T00:32:55.260Z,25.57
2017-02-20T00:33:14.383Z,25.53
2017-02-20T00:33:34.225Z,25.5
2017-02-20T00:33:53.395Z,25.56
2017-02-20T00:34:13.158Z,25.47
2017-02-20T00:34:32.889Z,25.46
2017-02-20T00:34:52.624Z,25.42
2017-02-20T00:35:12.337Z,25.46
2017-02-20T00:35:32.088Z,25.47
2017-02-20T00:35:51.838Z,25.47
2017-02-20T00:36:11.580Z,25.35
2017-02-20T00:36:31.356Z,25.4
2017-02-20T00:36:51.081Z,25.35
2017-02-20T00:37:10.881Z,25.28
2017-02-20T00:37:30.608Z,25.3
2017-02-20T00:37:50.342Z,25.27
2017-02-20T00:38:10.095Z,25.27
2017-02-20T00:38:29.900Z,25.22
2017-02-20T00:38:49.662Z,25.25
2017-02-20T00:39:09.387Z,25.23
2017-02-20T00:39:28.570Z,25.25
2017-02-20T00:39:48.310Z,25.19
2017-02-20T00:40:08.051Z,25.23
2017-02-20T00:40:27.214Z,25.25
2017-02-20T00:40:46.398Z,25.28
2017-02-20T00:41:06.172Z,25.25
2017-02-20T00:41:25.261Z,25.31
2017-02-20T00:41:44.996Z,25.27
2017-02-20T00:42:04.723Z,25.32
2017-02-20T00:42:23.866Z,25.3
2017-02-20T00:42:43.615Z,25.34
2017-02-20T00:43:03.344Z,25.25
2017-02-20T00:43:22.481Z,25.25
2017-02-20T00:43:42.173Z,25.28
2017-02-20T00:44:01.942Z,25.25
2017-02-20T00:44:21.082Z,25.27
2017-02-20T00:44:40.901Z,25.27
2017-02-20T00:45:00.028Z,25.28
2017-02-20T00:45:19.820Z,25.23
2017-02-20T00:45:39.605Z,25.27
2017-02-20T00:45:59.409Z,25.32
2017-02-20T00:46:19.186Z,25.34
2017-02-20T00:46:38.919Z,25.3
2017-02-20T00:46:58.669Z,25.35
2017-02-20T00:47:17.799Z,25.28
2017-02-20T00:47:37.627Z,25.25
2017-02-20T00:47:57.389Z,25.27
2017-02-20T00:48:15.951Z,25.19
2017-02-20T00:48:35.231Z,25.2
2017-02-20T00:48:54.980Z,25.28
2017-02-20T00:49:14.755Z,25.32
2017-02-20T00:49:34.506Z,25.27
2017-02-20T00:49:54.278Z,25.27
2017-02-20T00:50:12.836Z,25.4
2017-02-20T00:50:31.997Z,25.32
2017-02-20T00:50:51.781Z,25.34
2017-02-20T00:51:10.932Z,25.32
2017-02-20T00:51:30.765Z,25.31
2017-02-20T00:51:50.525Z,25.35
2017-02-20T00:52:10.296Z,25.27
2017-02-20T00:52:30.043Z,25.3
2017-02-20T00:52:49.800Z,25.23
2017-02-20T00:53:09.546Z,25.25
2017-02-20T00:53:28.703Z,25.23
2017-02-20T00:53:48.501Z,25.23
2017-02-20T00:54:08.273Z,25.31
2017-02-20T00:54:28.021Z,25.28
2017-02-20T00:54:47.750Z,25.28
2017-02-20T00:55:07.513Z,25.28
2017-02-20T00:55:27.251Z,25.25
2017-02-20T00:55:47.008Z,25.25
2017-02-20T00:56:06.158Z,25.27
2017-02-20T00:56:25.332Z,25.12
2017-02-20T00:56:45.128Z,25.25
2017-02-20T00:57:04.895Z,25.22
2017-02-20T00:57:24.682Z,25.22
2017-02-20T00:57:44.454Z,25.09
2017-02-20T00:58:04.195Z,25.2
2017-02-20T00:58:23.353Z,25.22
2017-02-20T00:58:43.139Z,25.22
2017-02-20T00:59:02.843Z,25.23
2017-02-20T00:59:22.019Z,25.25
2017-02-20T00:59:41.767Z,25.27
2017-02-20T01:00:01.495Z,25.22
2017-02-20T01:00:21.320Z,25.25
2017-02-20T01:00:41.072Z,25.17
2017-02-20T01:01:00.788Z,25.23
2017-02-20T01:01:20.572Z,25.16
2017-02-20T01:01:40.295Z,25.23
2017-02-20T01:01:59.462Z,25.22
2017-02-20T01:02:18.570Z,25.19
2017-02-20T01:02:38.293Z,25.13
2017-02-20T01:02:58.019Z,25.22
2017-02-20T01:03:17.741Z,25.12
2017-02-20T01:03:37.553Z,25.1
2017-02-20T01:03:57.264Z,25.13
2017-02-20T01:04:16.990Z,25.19
2017-02-20T01:04:36.746Z,25.08
2017-02-20T01:04:56.534Z,25.15
2017-02-20T01:05:15.078Z,25.17
2017-02-20T01:05:34.823Z,25.19
2017-02-20T01:05:54.620Z,25.2
2017-02-20T01:06:14.409Z,25.17
2017-02-20T01:06:33.568Z,25.2
2017-02-20T01:06:52.770Z,25.16
2017-02-20T01:07:12.566Z,25.16
2017-02-20T01:07:32.284Z,25.2
2017-02-20T01:07:52.006Z,25.22
2017-02-20T01:08:11.150Z,25.12
2017-02-20T01:08:30.875Z,25.15
2017-02-20T01:08:50.022Z,25.05
2017-02-20T01:09:09.811Z,25.16
2017-02-20T01:09:28.979Z,25.1
2017-02-20T01:09:48.121Z,25.15
2017-02-20T01:10:07.915Z,25.02
2017-02-20T01:10:26.489Z,25.19
2017-02-20T01:10:46.278Z,25.22
2017-02-20T01:11:06.053Z,25.15
2017-02-20T01:11:25.830Z,25.19
2017-02-20T01:11:45.574Z,25.15
2017-02-20T01:12:05.313Z,25.02
2017-02-20T01:12:25.085Z,25.04
2017-02-20T01:12:45.314Z,25.12
2017-02-20T01:13:05.071Z,25.22
2017-02-20T01:13:24.838Z,25.09
2017-02-20T01:13:44.568Z,25.02
2017-02-20T01:14:04.301Z,25.17
2017-02-20T01:14:24.062Z,25.13
2017-02-20T01:14:43.800Z,25.09
2017-02-20T01:15:03.580Z,25.08
2017-02-20T01:15:22.751Z,25.04
2017-02-20T01:15:41.877Z,25.04
2017-02-20T01:16:01.645Z,25.15
2017-02-20T01:16:20.798Z,25.08
2017-02-20T01:16:40.588Z,25.09
2017-02-20T01:17:00.303Z,25.12
2017-02-20T01:17:20.039Z,25.05
2017-02-20T01:17:39.184Z,25.02
2017-02-20T01:17:58.944Z,25.1
2017-02-20T01:18:18.687Z,25.12
2017-02-20T01:18:38.822Z,25.15
2017-02-20T01:18:58.593Z,25.13
2017-02-20T01:19:17.752Z,25.15
2017-02-20T01:19:37.504Z,25.13
2017-02-20T01:19:57.226Z,25.08
2017-02-20T01:20:16.349Z,25.15
2017-02-20T01:20:36.104Z,25.13
2017-02-20T01:20:55.858Z,25.15
2017-02-20T01:21:15.011Z,25.16
2017-02-20T01:21:34.770Z,25.19
2017-02-20T01:21:54.567Z,25.16
2017-02-20T01:22:14.313Z,25.16
2017-02-20T01:22:33.497Z,25.2
2017-02-20T01:22:53.274Z,25.2
2017-02-20T01:23:13.028Z,25.15
2017-02-20T01:23:32.776Z,25.16
2017-02-20T01:23:52.507Z,25.22
2017-02-20T01:24:12.274Z,25.04
2017-02-20T01:24:32.047Z,25.12
2017-02-20T01:24:51.803Z,25.13
2017-02-20T01:25:11.570Z,25.2
2017-02-20T01:25:31.282Z,25.2
2017-02-20T01:25:51.038Z,25.19
2017-02-20T01:26:09.594Z,25.23
2017-02-20T01:26:29.339Z,25.23
2017-02-20T01:26:49.072Z,25.27
2017-02-20T01:27:08.839Z,25.12
2017-02-20T01:27:28.647Z,25.19
2017-02-20T01:27:48.353Z,25.17
2017-02-20T01:28:08.112Z,25.22
2017-02-20T01:28:27.266Z,25.16
2017-02-20T01:28:47.121Z,25.17
2017-02-20T01:29:05.680Z,25.13
2017-02-20T01:29:25.439Z,25.13
2017-02-20T01:29:45.258Z,25.09
2017-02-20T01:30:05.033Z,25.2
2017-02-20T01:30:24.807Z,25.15
2017-02-20T01:30:44.529Z,25.13
2017-02-20T01:31:04.298Z,25.23
2017-02-20T01:31:24.054Z,25.23
2017-02-20T01:31:43.822Z,25.23
2017-02-20T01:32:02.953Z,25.22
2017-02-20T01:32:22.150Z,25.23
2017-02-20T01:32:41.889Z,25.23
2017-02-20T01:33:01.669Z,25.23
2017-02-20T01:33:20.823Z,25.23
2017-02-20T01:33:40.678Z,25.17
2017-02-20T01:34:00.447Z,25.23
2017-02-20T01:34:19.583Z,25.23
2017-02-20T01:34:38.736Z,25.17
2017-02-20T01:34:58.503Z,25.1
2017-02-20T01:35:18.509Z,25.02
2017-02-20T01:35:37.639Z,25.08
2017-02-20T01:35:57.417Z,25.09
2017-02-20T01:36:17.189Z,25.05
2017-02-20T01:36:36.925Z,25.02
2017-02-20T01:36:56.716Z,25.15
2017-02-20T01:37:16.451Z,25.17
2017-02-20T01:37:35.608Z,25.12
2017-02-20T01:37:55.321Z,25.2
2017-02-20T01:38:14.445Z,25.13
2017-02-20T01:38:34.198Z,25.1
2017-02-20T01:38:53.961Z,25.19
2017-02-20T01:39:13.740Z,25.27
2017-02-20T01:39:32.905Z,25.23
2017-02-20T01:39:52.646Z,25.1
2017-02-20T01:40:11.795Z,25.16
2017-02-20T01:40:31.534Z,25.16
2017-02-20T01:40:51.305Z,25.12
2017-02-20T01:41:10.440Z,25.19
2017-02-20T01:41:30.182Z,25.15
2017-02-20T01:41:49.941Z,25.25
2017-02-20T01:42:09.727Z,25.1
2017-02-20T01:42:28.872Z,25.22
2017-02-20T01:42:48.022Z,25.2
2017-02-20T01:43:07.839Z,25.23
2017-02-20T01:43:27.558Z,25.23
2017-02-20T01:43:47.307Z,25.22
2017-02-20T01:44:07.076Z,25.3
2017-02-20T01:44:26.174Z,25.31
2017-02-20T01:44:45.947Z,25.28
2017-02-20T01:45:05.677Z,25.16
2017-02-20T01:45:25.456Z,25.23
2017-02-20T01:45:45.280Z,25.22
2017-02-20T01:46:05.042Z,25.3
2017-02-20T01:46:24.173Z,25.2
2017-02-20T01:46:43.946Z,25.16
2017-02-20T01:47:03.708Z,25.22
2017-02-20T01:47:23.444Z,25.08
2017-02-20T01:47:43.221Z,25.12
2017-02-20T01:48:02.992Z,25.12
2017-02-20T01:48:22.748Z,25.1
2017-02-20T01:48:42.730Z,25.09
2017-02-20T01:49:02.526Z,25.09
2017-02-20T01:49:23.690Z,25.1
2017-02-20T01:49:43.468Z,25.09
2017-02-20T01:50:03.213Z,25.09
2017-02-20T01:50:21.818Z,25.1
2017-02-20T01:50:41.527Z,25.1
2017-02-20T01:51:01.275Z,25.1
2017-02-20T01:51:21.026Z,25.1
2017-02-20T01:51:40.834Z,25.09
2017-02-20T01:52:00.582Z,24.91
2017-02-20T01:52:19.741Z,24.94
2017-02-20T01:52:38.888Z,25.01
2017-02-20T01:52:58.654Z,24.9
2017-02-20T01:53:18.449Z,24.9
2017-02-20T01:53:37.611Z,24.93
2017-02-20T01:53:57.380Z,24.85
2017-02-20T01:54:17.140Z,24.88
2017-02-20T01:54:36.248Z,24.85
2017-02-20T01:54:55.402Z,24.85
2017-02-20T01:55:15.151Z,24.79
2017-02-20T01:55:34.879Z,24.8
2017-02-20T01:55:54.620Z,24.76
2017-02-20T01:56:14.419Z,24.73
2017-02-20T01:56:34.179Z,24.78
2017-02-20T01:56:53.334Z,24.76
2017-02-20T01:57:12.473Z,24.8
2017-02-20T01:57:31.631Z,24.83
2017-02-20T01:57:51.425Z,24.79
2017-02-20T01:58:11.235Z,24.71
2017-02-20T01:58:30.987Z,24.71
2017-02-20T01:58:50.124Z,24.67
2017-02-20T01:59:09.876Z,24.67
2017-02-20T01:59:29.627Z,24.71
2017-02-20T01:59:49.370Z,24.66
2017-02-20T02:00:22.999Z,24.67
2017-02-20T02:00:42.747Z,24.75
2017-02-20T02:01:02.471Z,24.75
2017-02-20T02:01:21.627Z,24.76
2017-02-20T02:01:41.407Z,24.69
2017-02-20T02:02:01.129Z,24.67
2017-02-20T02:02:20.867Z,24.71
2017-02-20T02:02:40.625Z,24.57
2017-02-20T02:02:59.795Z,24.67
2017-02-20T02:03:18.959Z,24.71
2017-02-20T02:03:38.753Z,24.66
2017-02-20T02:03:58.502Z,24.63
2017-02-20T02:04:18.285Z,24.6
2017-02-20T02:04:38.032Z,24.57
2017-02-20T02:04:57.209Z,24.47
2017-02-20T02:05:16.390Z,24.42
2017-02-20T02:05:35.511Z,24.48
2017-02-20T02:05:55.267Z,24.42
2017-02-20T02:06:15.056Z,24.44
2017-02-20T02:06:34.788Z,24.45
2017-02-20T02:06:54.542Z,24.44
2017-02-20T02:07:13.654Z,24.41
2017-02-20T02:07:33.397Z,24.4
2017-02-20T02:07:53.153Z,24.41
2017-02-20T02:08:12.333Z,24.45
2017-02-20T02:08:32.098Z,24.44
2017-02-20T02:08:51.848Z,24.42
2017-02-20T02:09:10.984Z,24.42
2017-02-20T02:09:30.764Z,24.5
2017-02-20T02:09:50.503Z,24.48
2017-02-20T02:10:10.233Z,24.48
2017-02-20T02:10:29.994Z,24.42
2017-02-20T02:10:49.735Z,24.54
2017-02-20T02:11:09.481Z,24.42
2017-02-20T02:11:28.651Z,24.47
2017-02-20T02:11:48.447Z,24.44
2017-02-20T02:12:08.199Z,24.54
2017-02-20T02:12:27.962Z,24.59
2017-02-20T02:12:47.686Z,24.54
2017-02-20T02:13:07.445Z,24.6
2017-02-20T02:13:27.219Z,24.42
2017-02-20T02:13:46.972Z,24.62
2017-02-20T02:14:06.127Z,24.6
2017-02-20T02:14:25.288Z,24.59
2017-02-20T02:14:45.023Z,24.6
2017-02-20T02:15:04.753Z,24.63
2017-02-20T02:15:24.456Z,24.67
2017-02-20T02:15:44.209Z,24.57
2017-02-20T02:16:03.999Z,24.54
2017-02-20T02:16:23.755Z,24.44
2017-02-20T02:16:42.894Z,24.56
2017-02-20T02:17:02.606Z,24.57
2017-02-20T02:17:22.373Z,24.6
2017-02-20T02:17:42.096Z,24.71
2017-02-20T02:18:01.841Z,24.59
2017-02-20T02:18:21.582Z,24.48
2017-02-20T02:18:41.314Z,24.48
2017-02-20T02:19:01.017Z,24.5
2017-02-20T02:19:19.607Z,24.57
2017-02-20T02:19:39.411Z,24.45
2017-02-20T02:19:59.150Z,24.59
2017-02-20T02:20:32.822Z,24.44
2017-02-20T02:20:52.564Z,24.47
2017-02-20T02:21:12.306Z,24.48
2017-02-20T02:21:32.090Z,24.47
2017-02-20T02:21:51.879Z,24.48
2017-02-20T02:22:10.404Z,24.5
2017-02-20T02:22:30.160Z,24.42
2017-02-20T02:22:49.913Z,24.41
2017-02-20T02:23:09.662Z,24.45
2017-02-20T02:23:28.803Z,24.42
2017-02-20T02:23:48.544Z,24.4
2017-02-20T02:24:07.702Z,24.29
2017-02-20T02:24:27.441Z,24.4
2017-02-20T02:24:46.568Z,24.4
2017-02-20T02:25:06.380Z,24.41
2017-02-20T02:25:26.134Z,24.38
2017-02-20T02:25:45.864Z,24.22
2017-02-20T02:26:05.655Z,24.16
2017-02-20T02:26:24.754Z,24.04
2017-02-20T02:26:44.468Z,24.05
2017-02-20T02:27:04.183Z,24.08
2017-02-20T02:27:23.323Z,24.01
2017-02-20T02:27:43.066Z,24.11
2017-02-20T02:28:02.861Z,24
2017-02-20T02:28:22.629Z,24.02
2017-02-20T02:28:41.738Z,23.98
2017-02-20T02:29:01.483Z,24.04
2017-02-20T02:29:21.282Z,24.01
2017-02-20T02:29:41.068Z,24
2017-02-20T02:30:00.864Z,23.98
2017-02-20T02:30:20.643Z,23.97
2017-02-20T02:30:39.782Z,24.01
2017-02-20T02:30:59.538Z,23.97
2017-02-20T02:31:19.350Z,23.97
2017-02-20T02:31:39.125Z,24
2017-02-20T02:31:58.923Z,24.01
2017-02-20T02:32:18.071Z,24.11
2017-02-20T02:32:37.845Z,24.02
2017-02-20T02:32:57.622Z,24.1
2017-02-20T02:33:17.353Z,24.1
2017-02-20T02:33:37.121Z,23.98
2017-02-20T02:33:56.882Z,24.02
2017-02-20T02:34:16.680Z,24
2017-02-20T02:34:35.847Z,24.02
2017-02-20T02:34:55.637Z,24.04
2017-02-20T02:35:14.799Z,24
2017-02-20T02:35:34.555Z,23.97
2017-02-20T02:35:54.302Z,23.95
2017-02-20T02:36:14.053Z,23.98
2017-02-20T02:36:33.807Z,23.98
2017-02-20T02:36:53.554Z,23.97
2017-02-20T02:37:13.290Z,24.01
2017-02-20T02:37:32.483Z,23.95
2017-02-20T02:37:52.251Z,24.02
2017-02-20T02:38:11.989Z,23.98
2017-02-20T02:38:31.725Z,24.01
2017-02-20T02:38:51.497Z,24.02
2017-02-20T02:39:10.626Z,23.98
2017-02-20T02:39:30.425Z,23.98
2017-02-20T02:39:50.197Z,24.05
2017-02-20T02:40:09.939Z,24.02
2017-02-20T02:40:29.700Z,24.04
2017-02-20T02:40:49.462Z,24.08
2017-02-20T02:41:09.212Z,24.08
2017-02-20T02:41:28.945Z,24.07
2017-02-20T02:41:48.738Z,24.02
2017-02-20T02:42:07.920Z,24.08
2017-02-20T02:42:27.105Z,24
2017-02-20T02:42:46.863Z,23.98
2017-02-20T02:43:06.594Z,23.98
2017-02-20T02:43:26.609Z,24.02
2017-02-20T02:43:46.378Z,24.05
2017-02-20T02:44:06.117Z,24.08
2017-02-20T02:44:25.870Z,23.98
2017-02-20T02:44:45.630Z,24.08
2017-02-20T02:45:05.382Z,24.08
2017-02-20T02:45:25.120Z,24.11
2017-02-20T02:45:44.865Z,24.08
2017-02-20T02:46:04.674Z,24.11
2017-02-20T02:46:24.431Z,24.12
2017-02-20T02:46:44.213Z,24.16
2017-02-20T02:47:03.934Z,24.11
2017-02-20T02:47:23.747Z,24.05
2017-02-20T02:47:42.918Z,24.07
2017-02-20T02:48:02.763Z,24.17
2017-02-20T02:48:21.875Z,24.17
2017-02-20T02:48:41.653Z,24.05
2017-02-20T02:49:01.421Z,24.15
2017-02-20T02:49:21.171Z,24.15
2017-02-20T02:49:40.952Z,24.16
2017-02-20T02:50:14.618Z,24.15
2017-02-20T02:50:33.800Z,24.23
2017-02-20T02:50:52.964Z,24.26
2017-02-20T02:51:12.703Z,24.15
2017-02-20T02:51:31.919Z,24.25
2017-02-20T02:51:51.718Z,24.2
2017-02-20T02:52:11.411Z,24.27
2017-02-20T02:52:31.134Z,24.3
2017-02-20T02:52:50.887Z,24.3
2017-02-20T02:53:10.005Z,24.34
2017-02-20T02:53:29.730Z,24.27
2017-02-20T02:53:49.486Z,24.3
2017-02-20T02:54:08.670Z,24.3
2017-02-20T02:54:28.461Z,24.34
2017-02-20T02:54:48.240Z,24.38
2017-02-20T02:55:07.994Z,24.25
2017-02-20T02:55:27.171Z,24.17
2017-02-20T02:55:47.005Z,24.32
2017-02-20T02:56:06.857Z,24.19
2017-02-20T02:56:25.428Z,24.19
2017-02-20T02:56:45.243Z,24.23
2017-02-20T02:57:05.522Z,24.29
2017-02-20T02:57:24.744Z,24.2
2017-02-20T02:57:44.463Z,24.2
2017-02-20T02:58:04.286Z,24.17
2017-02-20T02:58:24.017Z,24.17
2017-02-20T02:58:43.918Z,24.2
2017-02-20T02:59:03.679Z,24.22
2017-02-20T02:59:23.414Z,24.17
2017-02-20T02:59:43.207Z,24.26
2017-02-20T03:00:03.208Z,24.22
2017-02-20T03:00:22.357Z,24.2
2017-02-20T03:00:41.516Z,24.26
2017-02-20T03:01:01.283Z,24.22
2017-02-20T03:01:20.425Z,24.22
2017-02-20T03:01:40.191Z,24.22
2017-02-20T03:01:59.913Z,24.27
2017-02-20T03:02:19.671Z,24.23
2017-02-20T03:02:38.821Z,24.19
2017-02-20T03:02:58.579Z,24.23
2017-02-20T03:03:18.319Z,24.22
2017-02-20T03:03:38.044Z,24.19
2017-02-20T03:03:57.132Z,24.26
2017-02-20T03:04:16.896Z,24.32
2017-02-20T03:04:36.657Z,24.34
2017-02-20T03:04:56.422Z,24.35
2017-02-20T03:05:16.197Z,24.32
2017-02-20T03:05:35.949Z,24.29
2017-02-20T03:05:55.699Z,24.26
2017-02-20T03:06:15.474Z,24.3
2017-02-20T03:06:35.218Z,24.27
2017-02-20T03:06:54.960Z,24.12
2017-02-20T03:07:14.725Z,24.2
2017-02-20T03:07:34.500Z,24.27
2017-02-20T03:07:54.244Z,24.27
2017-02-20T03:08:14.040Z,24.25
2017-02-20T03:08:33.239Z,24.25
2017-02-20T03:08:52.965Z,24.26
2017-02-20T03:09:12.679Z,24.25
2017-02-20T03:09:32.476Z,24.17
2017-02-20T03:09:52.214Z,24.25
2017-02-20T03:10:11.338Z,24.17
2017-02-20T03:10:31.115Z,24.23
2017-02-20T03:10:50.249Z,24.23
2017-02-20T03:11:09.406Z,24.23
2017-02-20T03:11:27.973Z,24.19
2017-02-20T03:11:47.720Z,24.19
2017-02-20T03:12:07.458Z,24.2
2017-02-20T03:12:27.219Z,24.23
2017-02-20T03:12:46.968Z,24.3
2017-02-20T03:13:06.753Z,24.19
2017-02-20T03:13:26.490Z,24.16
2017-02-20T03:13:46.181Z,24.2
2017-02-20T03:14:05.301Z,24.2
2017-02-20T03:14:24.461Z,24.2
2017-02-20T03:14:44.246Z,24.2
2017-02-20T03:15:04.046Z,24.2
2017-02-20T03:15:23.789Z,24.2
2017-02-20T03:15:42.931Z,24.11
2017-02-20T03:16:02.691Z,24.12
2017-02-20T03:16:22.394Z,24.26
2017-02-20T03:16:41.539Z,24.25
2017-02-20T03:17:01.270Z,24.26
2017-02-20T03:17:21.028Z,24.23
2017-02-20T03:17:40.782Z,24.17
2017-02-20T03:18:00.541Z,24.27
2017-02-20T03:18:20.430Z,24.26
2017-02-20T03:18:40.222Z,24.23
2017-02-20T03:18:59.976Z,24.27
2017-02-20T03:19:19.777Z,24.34
2017-02-20T03:19:39.551Z,24.3
2017-02-20T03:19:59.294Z,24.32
2017-02-20T03:20:18.689Z,24.22
2017-02-20T03:20:38.467Z,24.29
2017-02-20T03:20:58.246Z,24.29
2017-02-20T03:21:17.980Z,24.34
2017-02-20T03:21:37.722Z,24.23
2017-02-20T03:21:57.408Z,24.27
2017-02-20T03:22:17.169Z,24.32
2017-02-20T03:22:36.912Z,24.2
2017-02-20T03:22:56.672Z,24.2
2017-02-20T03:23:16.438Z,24.17
2017-02-20T03:23:35.597Z,24.23
2017-02-20T03:23:55.337Z,24.19
2017-02-20T03:24:15.093Z,24.26
2017-02-20T03:24:34.844Z,24.16
2017-02-20T03:24:54.557Z,24.2
2017-02-20T03:25:13.730Z,24.27
2017-02-20T03:25:33.548Z,24.22
2017-02-20T03:25:53.299Z,24.26
2017-02-20T03:26:13.094Z,24.25
2017-02-20T03:26:32.842Z,24.2
2017-02-20T03:26:52.572Z,24.25
2017-02-20T03:27:12.344Z,24.19
2017-02-20T03:27:32.089Z,24.22
2017-02-20T03:27:51.857Z,24.12
2017-02-20T03:28:10.999Z,24.16
2017-02-20T03:28:31.047Z,24.04
2017-02-20T03:28:50.767Z,24.08
2017-02-20T03:29:09.902Z,24.17
2017-02-20T03:29:29.643Z,24.01
2017-02-20T03:29:49.399Z,24.08
2017-02-20T03:30:08.580Z,24.04
2017-02-20T03:30:27.740Z,24.23
2017-02-20T03:30:46.905Z,24.16
2017-02-20T03:31:06.623Z,24.04
2017-02-20T03:31:25.762Z,24.01
2017-02-20T03:31:44.885Z,24.08
2017-02-20T03:32:04.650Z,24.02
2017-02-20T03:32:23.819Z,24.15
2017-02-20T03:32:43.621Z,24.05
2017-02-20T03:33:02.771Z,24.17
2017-02-20T03:33:22.601Z,24.08
2017-02-20T03:33:42.367Z,24.08
2017-02-20T03:34:02.139Z,24.16
2017-02-20T03:34:21.315Z,24.1
2017-02-20T03:34:41.084Z,23.95
2017-02-20T03:35:00.831Z,23.98
2017-02-20T03:35:20.579Z,24.07
2017-02-20T03:35:39.716Z,24.07
2017-02-20T03:35:59.483Z,23.95
2017-02-20T03:36:19.243Z,24.01
2017-02-20T03:36:39.022Z,23.97
2017-02-20T03:36:58.795Z,24
2017-02-20T03:37:18.524Z,23.97
2017-02-20T03:37:38.272Z,23.86
2017-02-20T03:37:58.001Z,23.92
2017-02-20T03:38:17.761Z,23.74
2017-02-20T03:38:37.517Z,23.87
2017-02-20T03:38:57.236Z,23.89
2017-02-20T03:39:16.971Z,23.9
2017-02-20T03:39:36.126Z,23.89
2017-02-20T03:39:55.825Z,23.97
2017-02-20T03:40:15.756Z,24.01
2017-02-20T03:40:35.552Z,24
2017-02-20T03:40:55.297Z,23.95
2017-02-20T03:41:15.024Z,23.87
2017-02-20T03:41:34.771Z,23.92
2017-02-20T03:41:54.522Z,23.87
2017-02-20T03:42:13.677Z,23.92
2017-02-20T03:42:33.438Z,23.92
2017-02-20T03:42:53.193Z,23.97
2017-02-20T03:43:12.949Z,23.97
2017-02-20T03:43:32.723Z,23.93
2017-02-20T03:43:52.454Z,23.93
2017-02-20T03:44:12.192Z,23.93
2017-02-20T03:44:32.143Z,23.89
2017-02-20T03:44:51.915Z,23.9
2017-02-20T03:45:11.691Z,23.98
2017-02-20T03:45:31.424Z,23.97
2017-02-20T03:45:51.182Z,24.02
2017-02-20T03:46:10.974Z,23.97
2017-02-20T03:46:30.722Z,23.95
2017-02-20T03:46:49.900Z,23.86
2017-02-20T03:47:09.670Z,23.97
2017-02-20T03:47:29.454Z,23.89
2017-02-20T03:47:49.197Z,23.82
2017-02-20T03:48:08.952Z,23.93
2017-02-20T03:48:27.707Z,23.9
2017-02-20T03:48:47.469Z,23.9
2017-02-20T03:49:07.233Z,23.86
2017-02-20T03:49:27.006Z,23.9
2017-02-20T03:49:46.789Z,23.83
2017-02-20T03:50:06.532Z,23.87
2017-02-20T03:50:25.057Z,23.85
2017-02-20T03:50:44.806Z,23.85
2017-02-20T03:51:04.554Z,23.83
2017-02-20T03:51:24.299Z,23.87
2017-02-20T03:51:44.062Z,23.8
2017-02-20T03:52:03.792Z,23.83
2017-02-20T03:52:23.543Z,23.82
2017-02-20T03:52:43.296Z,23.78
2017-02-20T03:53:03.057Z,23.8
2017-02-20T03:53:22.824Z,23.75
2017-02-20T03:53:42.543Z,23.89
2017-02-20T03:54:02.336Z,23.82
2017-02-20T03:54:22.072Z,23.65
2017-02-20T03:54:41.832Z,23.7
2017-02-20T03:55:01.613Z,23.67
2017-02-20T03:55:21.389Z,23.71
2017-02-20T03:55:41.096Z,23.78
2017-02-20T03:56:00.833Z,23.78
2017-02-20T03:56:20.560Z,23.79
2017-02-20T03:56:39.670Z,23.7
2017-02-20T03:56:59.451Z,23.83
2017-02-20T03:57:19.155Z,23.78
2017-02-20T03:57:38.279Z,23.82
2017-02-20T03:57:58.001Z,23.83
2017-02-20T03:58:17.705Z,23.71
2017-02-20T03:58:37.473Z,23.8
2017-02-20T03:58:57.248Z,23.78
2017-02-20T03:59:16.986Z,23.68
2017-02-20T03:59:36.767Z,23.74
2017-02-20T03:59:55.905Z,23.79
2017-02-20T04:00:15.299Z,23.82
2017-02-20T04:00:35.886Z,23.83
2017-02-20T04:00:55.609Z,23.82
2017-02-20T04:01:14.770Z,23.8
2017-02-20T04:01:34.470Z,23.83
2017-02-20T04:01:54.203Z,23.79
2017-02-20T04:02:13.350Z,23.75
2017-02-20T04:02:33.067Z,23.7
2017-02-20T04:02:52.855Z,23.78
2017-02-20T04:03:12.599Z,23.75
2017-02-20T04:03:31.705Z,23.71
2017-02-20T04:03:51.416Z,23.72
2017-02-20T04:04:10.565Z,23.74
2017-02-20T04:04:30.298Z,23.72
2017-02-20T04:04:50.068Z,23.63
2017-02-20T04:05:09.815Z,23.67
2017-02-20T04:05:29.605Z,23.79
2017-02-20T04:05:49.348Z,23.65
2017-02-20T04:06:08.512Z,23.74
2017-02-20T04:06:28.233Z,23.61
2017-02-20T04:06:47.980Z,23.7
2017-02-20T04:07:07.701Z,23.79
2017-02-20T04:07:26.227Z,23.67
2017-02-20T04:07:45.980Z,23.7
2017-02-20T04:08:05.709Z,23.65
2017-02-20T04:08:24.876Z,23.65
2017-02-20T04:08:44.638Z,23.7
2017-02-20T04:09:04.442Z,23.7
2017-02-20T04:09:23.569Z,23.65
2017-02-20T04:09:43.285Z,23.67
2017-02-20T04:10:03.223Z,23.61
2017-02-20T04:10:22.357Z,23.63
2017-02-20T04:10:40.941Z,23.78
2017-02-20T04:11:00.706Z,23.75
2017-02-20T04:11:20.477Z,23.75
2017-02-20T04:11:40.256Z,23.67
2017-02-20T04:11:59.979Z,23.75
2017-02-20T04:12:19.125Z,23.64
2017-02-20T04:12:38.896Z,23.67
2017-02-20T04:12:58.623Z,23.65
2017-02-20T04:13:18.380Z,23.7
2017-02-20T04:13:38.070Z,23.74
2017-02-20T04:13:57.859Z,23.79
2017-02-20T04:14:17.590Z,23.68
2017-02-20T04:14:37.339Z,23.7
2017-02-20T04:14:56.520Z,23.67